Time;durP1;ratioP1;P1;durP2;ratioP2;P2;SDS_P1;SDS_P2;PMS_P1;PMS_P2;Temp;Humidity;BMP_temperature;BMP_pressure;BME280_temperature;BME280_humidity;BME280_pressure;Samples;Min_cycle;Max_cycle;Signal;HPM_P1;HPM_P2
2023/05/11 00:03:20;;;;;;;1.52;0.80;;;;;;;11.13;81.12;100648.22;10458368;28;20044;-68
2023/05/11 00:08:21;;;;;;;2.45;1.00;;;;;;;11.23;81.58;100675.47;10459587;28;20044;-69
2023/05/11 00:13:22;;;;;;;1.38;0.90;;;;;;;11.24;81.66;100677.13;10458504;28;20040;-68
2023/05/11 00:18:22;;;;;;;1.15;0.63;;;;;;;11.25;81.39;100678.81;10458139;28;20497;-68
2023/05/11 00:23:23;;;;;;;1.20;0.70;;;;;;;11.26;81.21;100676.97;10459308;28;20045;-68
2023/05/11 00:28:24;;;;;;;1.10;0.68;;;;;;;11.18;81.18;100683.94;10458097;28;20060;-68
2023/05/11 00:33:25;;;;;;;1.35;0.73;;;;;;;11.10;80.91;100680.47;10458798;28;20500;-68
2023/05/11 00:38:26;;;;;;;1.38;0.80;;;;;;;11.06;81.33;100673.78;10456269;28;20554;-68
2023/05/11 00:43:27;;;;;;;1.95;1.10;;;;;;;11.01;81.33;100676.09;10478256;28;20044;-68
2023/05/11 00:48:28;;;;;;;1.67;0.90;;;;;;;11.06;81.27;100663.16;10475938;28;20106;-68
2023/05/11 00:53:29;;;;;;;1.35;0.80;;;;;;;11.21;81.18;100682.78;10466947;28;20099;-68
2023/05/11 00:58:30;;;;;;;1.67;1.05;;;;;;;11.16;81.61;100663.84;10485374;28;20062;-68
2023/05/11 01:03:33;;;;;;;3.10;1.00;;;;;;;11.20;81.77;100675.81;10473369;28;20036;-68
2023/05/11 01:08:51;;;;;;;3.30;1.17;;;;;;;11.14;83.79;100687.09;10457399;28;20488;-68
2023/05/11 01:14:27;;;;;;;3.17;1.05;;;;;;;10.91;84.22;100689.53;10476738;28;20049;-68
2023/05/11 01:19:28;;;;;;;2.50;1.30;;;;;;;10.30;82.52;100587.88;10464409;28;20048;-68
2023/05/11 01:24:46;;;;;;;5.63;1.55;;;;;;;10.33;82.74;100602.66;10456014;28;20513;-68
2023/05/11 01:30:10;;;;;;;2.08;1.40;;;;;;;10.55;84.73;100649.88;10458306;28;20037;-69
2023/05/11 01:35:17;;;;;;;3.95;1.42;;;;;;;10.58;84.53;100662.84;10479068;28;20048;-68
2023/05/11 01:40:23;;;;;;;15.57;2.00;;;;;;;10.15;85.16;100595.59;10487471;28;20515;-68
2023/05/11 01:45:27;;;;;;;2.67;1.75;;;;;;;10.67;85.45;100692.94;10497155;28;20412;-68
2023/05/11 01:50:30;;;;;;;5.13;1.45;;;;;;;10.58;85.45;100672.63;10496443;28;20063;-67
2023/05/11 01:55:34;;;;;;;2.83;1.65;;;;;;;10.76;86.39;100697.28;10495321;28;20504;-68
2023/05/11 02:00:36;;;;;;;4.10;1.83;;;;;;;10.55;85.61;100657.84;10496654;28;20048;-68
2023/05/11 02:05:40;;;;;;;2.67;1.65;;;;;;;10.00;86.08;100584.72;10477271;28;20052;-68
2023/05/11 02:10:42;;;;;;;2.67;1.80;;;;;;;10.57;86.19;100689.59;10454751;28;20461;-69
2023/05/11 02:15:44;;;;;;;2.53;1.77;;;;;;;10.47;86.25;100690.53;10455352;28;20051;-68
2023/05/11 02:20:46;;;;;;;3.17;2.00;;;;;;;10.03;86.20;100615.44;10454529;28;20404;-68
2023/05/11 02:25:48;;;;;;;3.08;2.15;;;;;;;10.55;86.51;100708.31;10453706;28;20059;-68
2023/05/11 02:30:53;;;;;;;8.65;2.00;;;;;;;10.61;86.13;100712.16;10453968;28;20106;-68
2023/05/11 02:35:55;;;;;;;12.13;2.53;;;;;;;10.56;85.79;100715.31;10453765;28;20041;-68
2023/05/11 02:41:00;;;;;;;2.80;1.98;;;;;;;10.53;85.62;100720.94;10460351;28;20070;-69
2023/05/11 02:46:13;;;;;;;4.18;2.22;;;;;;;10.44;86.27;100717.41;10464206;28;20048;-68
2023/05/11 02:51:16;;;;;;;3.65;2.25;;;;;;;10.46;85.63;100726.03;10443065;28;20119;-69
2023/05/11 02:56:17;;;;;;;3.58;2.40;;;;;;;10.40;85.52;100721.34;10445871;28;20048;-69
2023/05/11 03:01:19;;;;;;;3.78;2.42;;;;;;;10.28;85.62;100701.38;10462457;28;20508;-69
2023/05/11 03:06:19;;;;;;;3.70;2.20;;;;;;;10.31;85.59;100726.78;10475904;28;20094;-69
2023/05/11 03:11:21;;;;;;;3.60;2.30;;;;;;;10.31;85.59;100740.88;10469479;28;20044;-68
2023/05/11 03:16:23;;;;;;;2.72;2.10;;;;;;;9.36;85.46;100588.63;10469315;28;20109;-68
2023/05/11 03:21:25;;;;;;;15.50;2.97;;;;;;;10.36;85.75;100754.53;10473051;28;20404;-68
2023/05/11 03:26:29;;;;;;;3.70;2.50;;;;;;;10.25;85.04;100737.00;10466303;28;20041;-69
2023/05/11 03:31:30;;;;;;;3.80;2.33;;;;;;;10.47;84.68;100751.63;10466202;28;20197;-69
2023/05/11 03:36:32;;;;;;;5.90;2.67;;;;;;;10.49;84.55;100754.13;10481362;28;20079;-69
2023/05/11 03:41:33;;;;;;;4.25;2.10;;;;;;;10.51;84.10;100752.97;10488363;28;20047;-69
2023/05/11 03:46:37;;;;;;;5.05;2.15;;;;;;;10.53;84.17;100760.78;10459564;28;20072;-69
2023/05/11 03:51:38;;;;;;;2.93;2.27;;;;;;;10.21;84.67;100700.31;10459884;28;20044;-69
2023/05/11 03:56:40;;;;;;;4.28;2.45;;;;;;;10.10;84.30;100700.56;10459616;28;20072;-70
2023/05/11 04:01:42;;;;;;;4.57;2.13;;;;;;;10.67;84.04;100800.03;10458909;28;20099;-69
2023/05/11 04:06:43;;;;;;;4.72;2.65;;;;;;;10.42;83.49;100774.34;10458846;28;20120;-69
2023/05/11 04:11:44;;;;;;;3.50;2.30;;;;;;;10.46;83.73;100807.56;10459860;28;20131;-69
2023/05/11 04:16:44;;;;;;;4.22;2.80;;;;;;;10.40;83.84;100822.28;10459171;28;20481;-69
2023/05/11 04:21:45;;;;;;;7.22;2.80;;;;;;;10.48;84.13;100822.34;10458766;28;20045;-69
2023/05/11 04:26:46;;;;;;;3.25;2.70;;;;;;;10.41;84.58;100839.03;10458849;28;20087;-69
2023/05/11 04:31:47;;;;;;;8.15;2.97;;;;;;;10.25;85.45;100814.00;10458053;28;20037;-69
2023/05/11 04:36:49;;;;;;;5.22;3.00;;;;;;;10.10;86.90;100828.00;10457858;28;20519;-68
2023/05/11 04:41:49;;;;;;;4.45;2.97;;;;;;;10.19;87.38;100846.47;10458121;28;20083;-69
2023/05/11 04:46:54;;;;;;;3.72;2.42;;;;;;;10.16;89.01;100851.28;10456467;28;20153;-69
2023/05/11 04:51:55;;;;;;;4.22;2.53;;;;;;;9.96;88.59;100842.63;10457695;28;20041;-70
2023/05/11 04:56:55;;;;;;;4.22;2.88;;;;;;;9.57;88.99;100776.59;10453148;28;20057;-71
2023/05/11 05:01:56;;;;;;;6.38;2.95;;;;;;;9.62;89.16;100790.25;10480592;28;20076;-66
2023/05/11 05:06:57;;;;;;;5.57;3.30;;;;;;;9.88;89.15;100848.69;10467039;28;20041;-66
2023/05/11 05:11:58;;;;;;;6.90;3.20;;;;;;;9.52;88.96;100776.22;10456793;28;20045;-66
2023/05/11 05:17:00;;;;;;;4.47;3.20;;;;;;;10.09;89.03;100852.88;10463957;28;20608;-67
2023/05/11 05:22:01;;;;;;;6.63;3.53;;;;;;;10.15;88.80;100860.22;10464692;28;20063;-67
2023/05/11 05:27:01;;;;;;;5.20;3.45;;;;;;;10.14;88.82;100858.53;10456840;28;20541;-70
2023/05/11 05:32:03;;;;;;;5.95;4.28;;;;;;;9.96;88.29;100822.25;10468840;28;20044;-67
2023/05/11 05:37:03;;;;;;;5.72;4.50;;;;;;;10.21;88.14;100833.06;10497009;28;20495;-68
2023/05/11 05:42:04;;;;;;;6.30;4.90;;;;;;;10.15;87.88;100817.75;10497061;28;20139;-67
2023/05/11 05:47:05;;;;;;;7.65;4.70;;;;;;;10.44;88.12;100812.16;10458949;28;20557;-67
2023/05/11 05:52:06;;;;;;;6.85;4.50;;;;;;;10.61;87.80;100835.22;10469259;28;20528;-69
2023/05/11 05:57:07;;;;;;;5.57;4.38;;;;;;;10.73;87.59;100844.56;10460783;28;20060;-66
2023/05/11 06:02:08;;;;;;;5.63;3.90;;;;;;;9.84;87.35;100749.13;10459508;28;20094;-67
2023/05/11 06:07:08;;;;;;;7.15;3.95;;;;;;;10.22;87.32;100854.13;10488864;28;20041;-67
2023/05/11 06:12:09;;;;;;;6.85;4.60;;;;;;;9.93;87.76;100819.91;10492593;28;20424;-70
2023/05/11 06:17:10;;;;;;;8.57;4.43;;;;;;;10.10;88.09;100868.63;10476641;28;20043;-68
2023/05/11 06:22:11;;;;;;;6.22;4.03;;;;;;;10.06;88.33;100862.81;10462665;28;20055;-68
2023/05/11 06:27:11;;;;;;;6.40;4.38;;;;;;;10.22;88.29;100882.53;10475632;28;20040;-68
2023/05/11 06:32:12;;;;;;;6.00;4.40;;;;;;;9.92;89.06;100834.13;10465836;28;20423;-69
2023/05/11 06:37:19;;;;;;;7.15;4.70;;;;;;;10.27;90.16;100912.16;10483921;28;20047;-70
2023/05/11 06:42:22;;;;;;;6.07;4.25;;;;;;;10.27;90.28;100912.16;10495512;28;20563;-69
2023/05/11 06:47:22;;;;;;;7.68;5.05;;;;;;;9.95;89.79;100812.59;10495277;28;20090;-69
2023/05/11 06:52:23;;;;;;;6.65;4.63;;;;;;;10.52;89.94;100910.53;10495336;28;20071;-68
2023/05/11 06:57:24;;;;;;;11.48;5.70;;;;;;;10.21;90.29;100819.78;10495625;28;20467;-70
2023/05/11 07:02:25;;;;;;;6.30;5.10;;;;;;;10.33;90.75;100817.75;10494557;28;20047;-71
2023/05/11 07:07:25;;;;;;;8.32;5.30;;;;;;;10.63;90.11;100926.22;10495899;28;20044;-69
2023/05/11 07:12:26;;;;;;;8.32;5.03;;;;;;;10.17;90.75;100887.44;10500170;28;20482;-70
2023/05/11 07:17:27;;;;;;;9.77;5.60;;;;;;;10.44;90.73;100942.31;10502113;28;20037;-69
2023/05/11 07:22:28;;;;;;;8.05;5.63;;;;;;;10.50;91.22;100923.16;10503032;28;20567;-70
2023/05/11 07:27:30;;;;;;;6.60;4.95;;;;;;;10.60;89.87;100942.47;10502401;28;20047;-69
2023/05/11 07:32:31;;;;;;;6.38;4.45;;;;;;;10.43;89.07;100945.97;10502868;28;20046;-69
2023/05/11 07:37:32;;;;;;;7.28;5.43;;;;;;;10.41;88.74;100942.63;10502638;28;20033;-69
2023/05/11 07:42:33;;;;;;;7.40;4.80;;;;;;;10.65;88.45;100936.69;10502424;28;20489;-69
2023/05/11 07:47:33;;;;;;;6.28;4.78;;;;;;;10.42;88.03;100877.91;10501754;28;20041;-69
2023/05/11 07:52:34;;;;;;;7.40;4.80;;;;;;;10.47;88.09;100895.06;10501682;28;20431;-69
2023/05/11 07:57:35;;;;;;;6.30;4.93;;;;;;;10.67;87.96;100908.16;10501433;28;20063;-69
2023/05/11 08:02:36;;;;;;;7.70;4.80;;;;;;;11.00;88.32;100914.53;10488669;28;20058;-70
2023/05/11 08:07:37;;;;;;;6.38;5.05;;;;;;;11.01;88.99;100905.56;10466874;28;20536;-69
2023/05/11 08:12:38;;;;;;;7.45;4.95;;;;;;;10.40;87.76;100810.81;10489840;28;20134;-70
2023/05/11 08:17:39;;;;;;;7.32;4.75;;;;;;;10.52;86.86;100836.97;10476413;28;20051;-70
2023/05/11 08:22:40;;;;;;;8.85;4.85;;;;;;;11.03;85.48;100918.69;10476657;28;20048;-69
2023/05/11 08:27:40;;;;;;;5.80;4.22;;;;;;;11.30;84.74;100907.88;10483065;28;20043;-69
2023/05/11 08:32:41;;;;;;;5.55;4.45;;;;;;;11.64;83.44;100875.09;10458789;28;20047;-69
2023/05/11 08:37:42;;;;;;;6.60;4.80;;;;;;;12.36;82.14;100875.41;10457550;28;20489;-69
2023/05/11 08:42:45;;;;;;;7.10;4.53;;;;;;;12.81;81.13;100870.53;10456288;28;20048;-69
2023/05/11 08:47:47;;;;;;;5.35;4.05;;;;;;;12.86;80.04;100820.16;10457438;28;20442;-70
2023/05/11 08:52:47;;;;;;;10.43;4.50;;;;;;;13.23;79.95;100884.41;10481285;28;20036;-70
2023/05/11 08:57:50;;;;;;;5.85;4.55;;;;;;;13.32;80.14;100869.22;10495140;28;20139;-71
2023/05/11 09:02:51;;;;;;;7.53;5.20;;;;;;;13.54;79.43;100885.47;10498546;28;20373;-71
2023/05/11 09:07:58;;;;;;;8.25;4.43;;;;;;;13.24;77.75;100822.03;10498349;28;20051;-71
2023/05/11 09:12:59;;;;;;;5.00;4.28;;;;;;;13.51;78.78;100875.16;10497559;28;20115;-71
2023/05/11 09:18:00;;;;;;;5.10;3.60;;;;;;;13.23;78.13;100880.91;10500877;28;20131;-71
2023/05/11 09:23:01;;;;;;;5.28;4.00;;;;;;;12.54;78.37;100835.25;10498514;28;20089;-71
2023/05/11 09:28:02;;;;;;;6.22;3.92;;;;;;;12.81;78.27;100903.34;10497833;28;20492;-71
2023/05/11 09:33:03;;;;;;;5.07;4.00;;;;;;;12.60;77.66;100807.94;10497383;28;20036;-71
2023/05/11 09:38:09;;;;;;;5.05;3.90;;;;;;;13.66;76.53;100894.75;10487895;28;20040;-71
2023/05/11 09:43:22;;;;;;;6.68;4.18;;;;;;;13.19;75.02;100800.41;10496966;28;20127;-71
2023/05/11 09:48:29;;;;;;;5.03;3.70;;;;;;;14.03;73.84;100862.00;10482219;28;20480;-72
2023/05/11 09:53:41;;;;;;;4.38;3.20;;;;;;;14.23;70.42;100861.50;10481122;28;20442;-71
2023/05/11 09:58:50;;;;;;;5.22;3.35;;;;;;;14.25;70.55;100872.88;10465829;28;20156;-71
2023/05/11 10:03:55;;;;;;;4.45;2.97;;;;;;;14.19;69.57;100870.91;10468130;28;20539;-72
2023/05/11 10:08:56;;;;;;;8.43;3.38;;;;;;;14.30;70.55;100867.81;10477417;28;20044;-72
2023/05/11 10:13:57;;;;;;;4.88;3.20;;;;;;;14.74;69.10;100857.22;10467598;28;20140;-71
2023/05/11 10:18:58;;;;;;;12.30;3.53;;;;;;;14.80;67.75;100791.47;10453244;28;20052;-72
2023/05/11 10:24:00;;;;;;;4.97;2.80;;;;;;;15.43;64.29;100845.41;10454488;28;20048;-72
2023/05/11 10:29:01;;;;;;;4.13;2.70;;;;;;;15.34;63.89;100799.16;10453931;28;20059;-73
2023/05/11 10:34:03;;;;;;;3.58;2.67;;;;;;;15.26;62.27;100777.88;10454397;28;20037;-71
2023/05/11 10:39:04;;;;;;;4.65;3.35;;;;;;;15.93;61.45;100857.13;10454344;28;20132;-72
2023/05/11 10:44:18;;;;;;;5.22;3.53;;;;;;;15.86;61.61;100771.34;10454930;28;20127;-71
2023/05/11 10:49:58;;;;;;;4.15;2.90;;;;;;;16.47;58.95;100853.09;10462400;28;20051;-72
2023/05/11 10:55:08;;;;;;;4.55;3.45;;;;;;;16.12;59.99;100775.25;10407382;28;20499;-71
2023/05/11 11:00:30;;;;;;;5.82;3.13;;;;;;;16.57;58.03;100853.56;10462132;28;20045;-71
2023/05/11 11:05:35;;;;;;;4.00;2.80;;;;;;;16.02;58.16;100793.53;10462009;28;20515;-72
2023/05/11 11:10:40;;;;;;;5.68;3.70;;;;;;;16.36;60.29;100849.91;10461451;28;20128;-71
2023/05/11 11:15:52;;;;;;;4.53;3.00;;;;;;;16.59;58.34;100838.94;10462091;28;20044;-71
2023/05/11 11:20:55;;;;;;;6.97;2.92;;;;;;;16.09;58.08;100767.59;10462005;28;20052;-71
2023/05/11 11:25:56;;;;;;;5.50;2.70;;;;;;;16.43;58.51;100853.47;10461196;28;20536;-72
2023/05/11 11:31:26;;;;;;;2.97;2.15;;;;;;;16.32;55.50;100840.59;10460890;28;20064;-72
2023/05/11 11:36:54;;;;;;;4.13;2.67;;;;;;;16.16;56.26;100848.91;10476273;28;20037;-71
2023/05/11 11:42:02;;;;;;;4.85;2.75;;;;;;;16.04;56.47;100853.13;10480635;28;20044;-70
2023/05/11 11:47:13;;;;;;;3.63;2.47;;;;;;;15.89;56.69;100784.34;10476006;28;20451;-70
2023/05/11 11:52:32;;;;;;;3.65;2.67;;;;;;;15.74;57.88;100764.84;10487337;28;20075;-71
2023/05/11 11:57:33;;;;;;;9.60;2.80;;;;;;;16.49;57.67;100845.69;10464271;28;20056;-70
2023/05/11 12:02:44;;;;;;;7.82;3.00;;;;;;;16.62;56.46;100835.84;10458339;28;20052;-70
2023/05/11 12:07:53;;;;;;;3.47;2.70;;;;;;;16.50;56.78;100815.97;10459629;28;20551;-70
2023/05/11 12:12:56;;;;;;;4.20;2.50;;;;;;;16.23;56.59;100769.38;10459575;28;20066;-71
2023/05/11 12:18:00;;;;;;;3.65;2.58;;;;;;;16.70;56.87;100777.72;10460804;28;20032;-70
2023/05/11 12:23:01;;;;;;;3.58;2.28;;;;;;;17.08;56.80;100835.38;10459114;28;20495;-71
2023/05/11 12:28:02;;;;;;;4.13;2.70;;;;;;;16.47;56.35;100684.13;10471503;28;20086;-71
2023/05/11 12:33:06;;;;;;;3.60;2.33;;;;;;;17.44;55.73;100817.31;10479387;28;20076;-72
2023/05/11 12:38:10;;;;;;;4.45;2.50;;;;;;;17.11;54.99;100765.16;10476632;28;20033;-71
2023/05/11 12:43:16;;;;;;;3.95;2.22;;;;;;;17.41;55.12;100823.09;10468537;28;20138;-71
2023/05/11 12:48:17;;;;;;;3.97;2.60;;;;;;;17.81;55.81;100801.75;10461368;28;20048;-71
2023/05/11 12:53:18;;;;;;;4.30;2.72;;;;;;;17.13;55.68;100739.97;10477082;28;20059;-70
2023/05/11 12:58:19;;;;;;;3.97;2.65;;;;;;;17.34;55.70;100820.38;10470743;28;20056;-70
2023/05/11 13:03:24;;;;;;;3.58;2.45;;;;;;;17.52;55.38;100825.19;10476473;28;20550;-70
2023/05/11 13:08:25;;;;;;;3.35;2.30;;;;;;;16.25;54.88;100568.97;10483012;28;20082;-69
2023/05/11 13:13:28;;;;;;;3.40;2.58;;;;;;;17.85;54.63;100821.81;10498123;28;20075;-69
2023/05/11 13:18:29;;;;;;;4.35;2.60;;;;;;;17.66;54.99;100797.34;10493726;28;20045;-71
2023/05/11 13:23:30;;;;;;;4.13;2.67;;;;;;;17.15;55.49;100765.59;10478523;28;20052;-72
2023/05/11 13:28:32;;;;;;;4.68;3.15;;;;;;;17.57;55.87;100804.75;10479509;28;20048;-72
2023/05/11 13:33:33;;;;;;;4.13;2.78;;;;;;;17.28;55.80;100795.16;10490942;28;20049;-72
2023/05/11 13:38:34;;;;;;;5.10;3.22;;;;;;;17.13;56.33;100804.41;10477415;28;20044;-71
2023/05/11 13:43:35;;;;;;;4.75;3.05;;;;;;;17.54;56.52;100809.72;10455862;28;20493;-72
2023/05/11 13:48:36;;;;;;;6.50;3.22;;;;;;;17.11;55.96;100745.53;10461237;28;20043;-72
2023/05/11 13:53:37;;;;;;;4.78;3.00;;;;;;;16.80;57.22;100799.69;10476692;28;20689;-72
2023/05/11 13:58:38;;;;;;;4.75;3.00;;;;;;;16.75;58.35;100819.03;10471744;28;20525;-71
2023/05/11 14:03:38;;;;;;;5.70;3.08;;;;;;;16.61;58.08;100785.09;10455191;28;20045;-71
2023/05/11 14:08:39;;;;;;;5.07;2.95;;;;;;;16.43;57.58;100753.44;10457186;28;20072;-71
2023/05/11 14:13:40;;;;;;;6.32;3.33;;;;;;;16.42;58.53;100819.66;10456336;28;20041;-71
2023/05/11 14:18:41;;;;;;;6.07;3.10;;;;;;;16.33;58.93;100828.84;10456984;28;20073;-71
2023/05/11 14:23:42;;;;;;;3.78;2.80;;;;;;;16.08;59.10;100814.19;10458072;28;20037;-71
2023/05/11 14:28:42;;;;;;;4.38;3.10;;;;;;;16.06;59.49;100797.47;10479051;28;20389;-70
2023/05/11 14:33:43;;;;;;;4.90;3.20;;;;;;;16.21;59.57;100816.97;10470328;28;20044;-72
2023/05/11 14:38:45;;;;;;;6.13;2.97;;;;;;;16.36;59.37;100820.41;10452934;28;20059;-70
2023/05/11 14:43:48;;;;;;;4.15;3.30;;;;;;;16.34;60.18;100817.09;10453802;28;20064;-71
2023/05/11 14:48:48;;;;;;;4.40;2.92;;;;;;;16.30;60.09;100820.34;10454588;28;20055;-71
2023/05/11 14:53:50;;;;;;;7.45;3.20;;;;;;;15.79;60.38;100753.53;10453878;28;20048;-71
2023/05/11 14:58:51;;;;;;;5.80;3.08;;;;;;;16.01;60.69;100805.28;10452317;28;20053;-71
2023/05/11 15:03:51;;;;;;;5.80;3.28;;;;;;;15.33;61.08;100711.88;10452447;28;20040;-71
2023/05/11 15:08:52;;;;;;;8.60;3.25;;;;;;;15.77;61.39;100799.28;10453251;28;20560;-71
2023/05/11 15:13:53;;;;;;;11.65;3.88;;;;;;;16.04;61.97;100840.56;10452916;28;20041;-71
2023/05/11 15:18:54;;;;;;;11.98;3.33;;;;;;;16.03;62.45;100830.00;10453218;28;20131;-71
2023/05/11 15:23:55;;;;;;;4.55;3.08;;;;;;;15.86;62.28;100819.56;10465063;28;20041;-71
2023/05/11 15:28:55;;;;;;;4.20;3.20;;;;;;;15.87;62.58;100836.47;10491237;28;20049;-71
2023/05/11 15:33:56;;;;;;;5.68;3.33;;;;;;;15.75;62.93;100844.16;10459425;28;20048;-71
2023/05/11 15:38:57;;;;;;;4.63;3.25;;;;;;;15.51;63.42;100810.50;10461124;28;20477;-71
2023/05/11 15:43:58;;;;;;;9.45;3.67;;;;;;;15.39;63.79;100807.47;10460323;28;20123;-71
2023/05/11 15:48:58;;;;;;;10.75;3.22;;;;;;;15.15;63.93;100789.06;10459673;28;20060;-71
2023/05/11 15:53:59;;;;;;;4.63;3.38;;;;;;;15.38;64.45;100847.84;10459619;28;20401;-71
2023/05/11 15:59:00;;;;;;;4.22;3.25;;;;;;;15.00;64.84;100805.97;10460350;28;20509;-71
2023/05/11 16:04:01;;;;;;;4.20;2.80;;;;;;;15.27;65.38;100862.50;10462848;28;20072;-72
2023/05/11 16:09:03;;;;;;;4.43;2.72;;;;;;;15.15;65.52;100869.34;10478637;28;20051;-72
2023/05/11 16:14:04;;;;;;;5.63;3.03;;;;;;;14.97;65.65;100845.63;10472238;28;20185;-70
2023/05/11 16:19:04;;;;;;;5.82;3.25;;;;;;;15.01;65.12;100868.31;10482397;28;20044;-71
2023/05/11 16:24:06;;;;;;;9.73;5.18;;;;;;;14.99;64.73;100878.41;10478531;28;20424;-71
2023/05/11 16:29:07;;;;;;;5.07;3.42;;;;;;;14.98;64.52;100884.75;10473012;28;20040;-73
2023/05/11 16:34:08;;;;;;;4.30;3.50;;;;;;;14.90;64.49;100895.53;10477407;28;20040;-72
2023/05/11 16:39:09;;;;;;;9.63;3.30;;;;;;;14.81;65.19;100906.31;10483173;28;20067;-72
2023/05/11 16:44:10;;;;;;;7.78;3.67;;;;;;;14.75;65.39;100901.69;10471205;28;20044;-72
2023/05/11 16:49:11;;;;;;;5.57;3.35;;;;;;;14.58;66.08;100889.50;10479088;28;20043;-73
2023/05/11 16:54:12;;;;;;;5.55;3.65;;;;;;;14.64;66.89;100906.66;10478971;28;20048;-72
2023/05/11 16:59:13;;;;;;;6.40;3.50;;;;;;;14.34;67.24;100875.28;10481557;28;20488;-72
2023/05/11 17:04:14;;;;;;;6.78;4.03;;;;;;;14.39;67.69;100910.34;10479623;28;20044;-72
2023/05/11 17:09:15;;;;;;;8.05;4.47;;;;;;;13.89;68.15;100836.06;10476135;28;20047;-72
2023/05/11 17:14:16;;;;;;;7.15;4.07;;;;;;;14.22;68.64;100889.25;10475694;28;20063;-72
2023/05/11 17:19:17;;;;;;;5.95;4.25;;;;;;;14.35;68.89;100924.22;10489070;28;20048;-71
2023/05/11 17:24:17;;;;;;;6.65;4.50;;;;;;;14.30;69.66;100934.63;10497900;28;20090;-71
2023/05/11 17:29:18;;;;;;;8.00;4.65;;;;;;;14.21;69.69;100939.19;10498078;28;20070;-71
2023/05/11 17:34:19;;;;;;;7.32;4.82;;;;;;;14.18;70.23;100949.38;10497968;28;20127;-71
2023/05/11 17:39:20;;;;;;;6.65;4.53;;;;;;;13.93;70.55;100912.13;10496086;28;20131;-72
2023/05/11 17:44:21;;;;;;;7.82;4.63;;;;;;;14.10;70.68;100944.94;10497128;28;20492;-71
2023/05/11 17:49:22;;;;;;;6.75;4.90;;;;;;;13.80;70.94;100925.25;10497278;28;20474;-72
2023/05/11 17:54:23;;;;;;;6.18;4.85;;;;;;;13.97;70.96;100950.88;10496598;28;20048;-72
2023/05/11 17:59:24;;;;;;;7.38;5.25;;;;;;;13.70;71.33;100917.47;10488787;28;20082;-72
2023/05/11 18:04:25;;;;;;;7.53;5.38;;;;;;;13.92;71.47;100964.72;10477644;28;20488;-72
2023/05/11 18:09:25;;;;;;;6.95;5.45;;;;;;;13.68;71.93;100919.47;10470733;28;20605;-72
2023/05/11 18:14:26;;;;;;;7.55;5.63;;;;;;;13.85;72.19;100954.91;10474156;28;20043;-74
2023/05/11 18:19:27;;;;;;;7.75;5.85;;;;;;;13.47;72.45;100890.69;10471803;28;20086;-71
2023/05/11 18:24:28;;;;;;;6.65;5.03;;;;;;;13.32;72.48;100857.75;10469166;28;20173;-71
2023/05/11 18:29:29;;;;;;;10.50;5.53;;;;;;;13.87;72.54;100960.91;10472075;28;20053;-71
2023/05/11 18:34:30;;;;;;;9.52;6.07;;;;;;;13.76;72.49;100942.59;10471560;28;20044;-72
2023/05/11 18:39:30;;;;;;;10.85;6.80;;;;;;;13.77;73.09;100960.31;10471185;28;20045;-71
2023/05/11 18:44:32;;;;;;;7.68;6.22;;;;;;;13.69;73.08;100937.97;10470605;28;20028;-72
2023/05/11 18:49:34;;;;;;;8.10;7.07;;;;;;;13.77;73.02;100960.31;10477654;28;20476;-72
2023/05/11 18:54:34;;;;;;;10.10;7.72;;;;;;;13.69;73.51;100953.16;10471965;28;20040;-71
2023/05/11 18:59:36;;;;;;;13.63;8.50;;;;;;;13.58;73.97;100935.69;10479434;28;20484;-71
2023/05/11 19:04:37;;;;;;;12.00;8.70;;;;;;;13.28;74.07;100889.25;10474362;28;20036;-71
2023/05/11 19:09:38;;;;;;;11.35;9.55;;;;;;;13.67;74.30;100964.03;10478709;28;20051;-71
2023/05/11 19:14:38;;;;;;;10.73;9.20;;;;;;;13.64;74.29;100969.72;10480895;28;20435;-72
2023/05/11 19:19:39;;;;;;;10.95;9.43;;;;;;;13.04;74.37;100863.44;10479257;28;20033;-72
2023/05/11 19:24:40;;;;;;;11.60;9.10;;;;;;;13.53;74.49;100961.25;10480402;28;20059;-72
2023/05/11 19:29:41;;;;;;;14.13;10.02;;;;;;;13.62;74.71;100966.38;10482291;28;20406;-72
2023/05/11 19:34:42;;;;;;;13.15;9.93;;;;;;;13.13;75.79;100886.44;10479166;28;20033;-72
2023/05/11 19:39:43;;;;;;;12.00;8.75;;;;;;;13.66;76.10;100966.84;10460628;28;20139;-72
2023/05/11 19:44:44;;;;;;;12.05;9.75;;;;;;;13.64;76.07;100974.19;10471841;28;20076;-72
2023/05/11 19:49:45;;;;;;;16.75;10.70;;;;;;;13.07;77.07;100889.78;10478485;28;20044;-72
2023/05/11 19:54:46;;;;;;;11.18;9.38;;;;;;;13.48;76.91;100959.06;10468440;28;20040;-72
2023/05/11 19:59:46;;;;;;;14.32;10.60;;;;;;;13.30;77.26;100929.09;10460469;28;20518;-72
2023/05/11 20:04:47;;;;;;;13.57;10.50;;;;;;;13.43;78.00;100956.94;10459808;28;20118;-73
2023/05/11 20:09:48;;;;;;;11.85;10.32;;;;;;;13.38;77.82;100955.78;10469653;28;20051;-72
2023/05/11 20:14:49;;;;;;;12.88;10.18;;;;;;;13.48;78.19;100973.25;10480399;28;20044;-73
2023/05/11 20:19:50;;;;;;;13.52;10.48;;;;;;;13.37;78.98;100978.09;10480249;28;20048;-72
2023/05/11 20:24:51;;;;;;;13.45;10.77;;;;;;;13.35;79.01;100977.47;10459116;28;20493;-72
2023/05/11 20:29:51;;;;;;;13.15;10.73;;;;;;;13.29;79.06;100964.81;10458885;28;20043;-72
2023/05/11 20:34:52;;;;;;;13.82;10.68;;;;;;;13.20;79.37;100954.13;10458458;28;20052;-72
2023/05/11 20:39:53;;;;;;;15.52;10.48;;;;;;;13.21;79.70;100961.09;10458263;28;20409;-72
2023/05/11 20:44:54;;;;;;;19.92;11.48;;;;;;;13.29;79.54;100978.16;10457338;28;20070;-72
2023/05/11 20:49:55;;;;;;;16.08;11.88;;;;;;;13.20;79.55;100963.97;10458628;28;20049;-72
2023/05/11 20:54:55;;;;;;;21.20;12.02;;;;;;;12.69;79.90;100897.53;10457759;28;20033;-72
2023/05/11 20:59:56;;;;;;;17.13;11.75;;;;;;;12.99;79.50;100965.31;10469160;28;20060;-72
2023/05/11 21:05:00;;;;;;;15.25;11.32;;;;;;;13.02;79.81;100983.66;10457327;28;20061;-72
2023/05/11 21:10:01;;;;;;;;;;;;;;;13.23;80.69;100980.47;10457561;28;20048;-72
2023/05/11 21:15:02;;;;;;;14.30;11.23;;;;;;;13.08;79.73;100992.00;10457222;28;19912;-72
2023/05/11 21:20:06;;;;;;;14.35;11.05;;;;;;;12.98;80.33;100979.66;10456882;28;20045;-72
2023/05/11 21:25:07;;;;;;;;;;;;;;;13.17;81.62;100997.16;10457941;28;20044;-72
2023/05/11 21:30:08;;;;;;;15.48;10.80;;;;;;;12.39;80.37;100912.38;10455990;28;19920;-72
2023/05/11 21:35:09;;;;;;;20.85;11.77;;;;;;;12.71;80.91;100964.84;10455632;28;20036;-72
2023/05/11 21:40:10;;;;;;;14.77;11.05;;;;;;;12.64;81.32;100958.50;10455975;28;20136;-72
2023/05/11 21:45:11;;;;;;;16.25;12.00;;;;;;;12.64;81.67;100963.84;10455976;28;20564;-72
2023/05/11 21:50:12;;;;;;;14.95;12.00;;;;;;;12.61;81.86;100972.16;10455472;28;20120;-72
2023/05/11 21:55:13;;;;;;;14.95;11.50;;;;;;;12.40;81.28;100942.50;10454590;28;20048;-72
2023/05/11 22:00:16;;;;;;;16.13;11.85;;;;;;;12.56;80.79;100988.66;10455088;28;20045;-72
2023/05/11 22:05:17;;;;;;;19.13;12.77;;;;;;;12.52;81.06;100987.31;10456102;28;20453;-72
2023/05/11 22:10:18;;;;;;;17.88;12.48;;;;;;;12.18;80.89;100928.81;10455189;28;20048;-72
2023/05/11 22:15:21;;;;;;;15.32;12.45;;;;;;;12.06;80.99;100909.66;10454964;28;20036;-72
2023/05/11 22:20:22;;;;;;;16.25;12.30;;;;;;;12.51;81.53;100971.50;10454732;28;20055;-72
2023/05/11 22:25:23;;;;;;;18.83;12.00;;;;;;;12.59;81.27;101002.63;10455197;28;20040;-72
2023/05/11 22:30:23;;;;;;;14.40;12.43;;;;;;;12.16;81.43;100914.00;10454847;28;20037;-72
2023/05/11 22:35:24;;;;;;;15.90;12.35;;;;;;;12.48;82.29;100955.84;10453826;28;20512;-72
2023/05/11 22:40:25;;;;;;;16.65;12.43;;;;;;;12.55;82.67;100981.66;10455918;28;20404;-72
2023/05/11 22:45:26;;;;;;;18.60;12.25;;;;;;;12.47;83.31;100980.81;10462215;28;20044;-72
2023/05/11 22:50:27;;;;;;;16.38;13.15;;;;;;;12.39;83.32;100960.31;10463014;28;20485;-72
2023/05/11 22:55:28;;;;;;;14.98;11.48;;;;;;;12.37;82.79;100978.31;10462310;28;20140;-72
2023/05/11 23:00:29;;;;;;;18.02;12.30;;;;;;;12.00;82.75;100915.66;10462561;28;20040;-72
2023/05/11 23:05:30;;;;;;;16.83;13.43;;;;;;;12.27;83.07;100978.47;10460291;28;20053;-72